Orion — JD3053 — position and weather

sailwx.info

Track history (hours):
 
Tides and Currents Weather Stations Pressure Air Temp Water Temp Dewpoint Dewpoint Depression Visibility Wind Speed Wind Dir Waves Ship Positions

Orion

Last reported at 2018-Jul-22 11:51 UTC. Time now 2018-Jul-22 21:42 UTC.
Position N 35°27' E 139°40'.

Length 30 m; draft 2.9 m.

Type: Pilot. MMSI: 431001618.

Date/timePositionNaut miles runAvg speedWind from/ knotsBaromVisibWave heightAir tempDewpointWater temp
2018-Jul-22 11:51N 35°27' E 139°40'3 8.6
2018-Jul-22 11:30N 35°26' E 139°43'5 9.0
2018-Jul-22 11:00N 35°22' E 139°45'611.5
2018-Jul-22 10:31N 35°16' E 139°46'611.7
2018-Jul-22 10:00N 35°11' E 139°46'1 1.6
2018-Jul-22 09:31N 35°11' E 139°47'611.6
2018-Jul-22 09:00N 35°17' E 139°45'714.1
2018-Jul-22 08:31N 35°23' E 139°41'4 7.8
2018-Jul-22 08:01N 35°27' E 139°40'0 0.0
2018-Jul-22 07:30N 35°27' E 139°40'0 0.0
2018-Jul-22 07:00N 35°27' E 139°40'0 0.0
2018-Jul-22 06:30N 35°27' E 139°40'0 0.0
2018-Jul-22 06:00N 35°27' E 139°40'0 0.0
2018-Jul-22 05:30N 35°27' E 139°40'0 0.0
2018-Jul-22 05:00N 35°27' E 139°40'0 0.0
2018-Jul-22 04:30N 35°27' E 139°40'0 0.0
2018-Jul-22 04:00N 35°27' E 139°40'0 0.0
2018-Jul-22 03:30N 35°27' E 139°40'0 0.0
2018-Jul-22 03:00N 35°27' E 139°40'0 0.0
2018-Jul-22 02:30N 35°27' E 139°40'0 0.0
2018-Jul-22 02:00N 35°27' E 139°40'0 0.0
2018-Jul-22 01:30N 35°27' E 139°40'0 0.0
2018-Jul-22 01:00N 35°27' E 139°40'0 0.0
2018-Jul-22 00:30N 35°27' E 139°40'0 0.0
2018-Jul-22 00:00N 35°27' E 139°40'0 0.0
2018-Jul-21 23:30N 35°27' E 139°40'0 0.0
2018-Jul-21 23:00N 35°27' E 139°40'0 0.0
2018-Jul-21 22:30N 35°27' E 139°40'0 0.0
2018-Jul-21 22:00N 35°27' E 139°40'0 0.0
2018-Jul-21 21:30N 35°27' E 139°40'0 0.0
2018-Jul-21 21:00N 35°27' E 139°40'0 0.0
2018-Jul-21 20:30N 35°27' E 139°40'0 0.0
2018-Jul-21 20:00N 35°27' E 139°40'0 0.0
2018-Jul-21 19:30N 35°27' E 139°40'0 0.0
2018-Jul-21 19:00N 35°27' E 139°40'0 0.0
2018-Jul-21 18:30N 35°27' E 139°40'0 0.0
2018-Jul-21 18:00N 35°27' E 139°40'0 0.0
2018-Jul-21 17:30N 35°27' E 139°40'0 0.0
2018-Jul-21 17:00N 35°27' E 139°40'0 0.0
2018-Jul-21 16:30N 35°27' E 139°40'0 0.0
2018-Jul-21 15:58N 35°27' E 139°40'0 0.0
2018-Jul-21 15:30N 35°27' E 139°40'0 0.0
2018-Jul-21 15:00N 35°27' E 139°40'0 0.0
2018-Jul-21 14:30N 35°27' E 139°40'0 0.0
2018-Jul-21 13:30N 35°27' E 139°40'0 0.0
2018-Jul-21 13:00N 35°27' E 139°40'0 0.0
2018-Jul-21 12:30N 35°27' E 139°40'0 0.0
2018-Jul-21 12:00N 35°27' E 139°40'0 0.0
2018-Jul-21 11:30N 35°27' E 139°40'0 0.0
2018-Jul-21 11:00N 35°27' E 139°40'0 0.0
2018-Jul-21 10:30N 35°27' E 139°40'2 3.3
2018-Jul-21 10:00N 35°27' E 139°42'714.2
2018-Jul-21 09:30N 35°20' E 139°42'714.4
2018-Jul-21 09:01N 35°13' E 139°46'4 8.5
2018-Jul-21 08:30N 35°17' E 139°45'612.8
2018-Jul-21 08:00N 35°23' E 139°42'3 5.8
2018-Jul-21 07:31N 35°25' E 139°46'4 7.4
2018-Jul-21 07:00N 35°27' E 139°42'2 3.4
2018-Jul-21 06:30N 35°27' E 139°40'0 0.0
2018-Jul-21 06:00N 35°27' E 139°40'0 0.0
2018-Jul-21 05:30N 35°27' E 139°40'0 0.0
2018-Jul-21 05:00N 35°27' E 139°40'0 0.0
2018-Jul-21 04:30N 35°27' E 139°40'0 0.0
2018-Jul-21 04:00N 35°27' E 139°40'0 0.0
2018-Jul-21 03:30N 35°27' E 139°40'0 0.0
2018-Jul-21 03:00N 35°27' E 139°40'0 0.0
2018-Jul-21 02:29N 35°27' E 139°40'0 0.0
2018-Jul-21 02:00N 35°27' E 139°40'0 0.0
2018-Jul-21 01:30N 35°27' E 139°40'0 0.0
2018-Jul-21 01:00N 35°27' E 139°40'0 0.0
2018-Jul-21 00:30N 35°27' E 139°40'0 0.0
2018-Jul-21 00:00N 35°27' E 139°40'0 0.0
2018-Jul-20 23:30N 35°27' E 139°40'0 0.0
2018-Jul-20 23:00N 35°27' E 139°40'0 0.0
2018-Jul-20 22:30N 35°27' E 139°40'0 0.3
2018-Jul-20 22:00N 35°27' E 139°40'2 3.4
2018-Jul-20 21:31N 35°27' E 139°42'5 9.9
2018-Jul-20 21:00N 35°23' E 139°46'611.2
2018-Jul-20 20:30N 35°17' E 139°45'611.8
2018-Jul-20 20:00N 35°11' E 139°47'0 1.0
2018-Jul-20 19:30N 35°11' E 139°47'612.9
2018-Jul-20 19:00N 35°17' E 139°44'713.6
2018-Jul-20 18:30N 35°24' E 139°42'4 0.1
2018-Jul-19 10:17N 35°27' E 139°40'2 6.0
2018-Jul-19 10:00N 35°27' E 139°42'714.7
2018-Jul-19 09:30N 35°19' E 139°42'815.3
2018-Jul-19 09:00N 35°12' E 139°46'510.4
2018-Jul-19 08:30N 35°17' E 139°45'612.0
2018-Jul-19 08:00N 35°23' E 139°41'1 2.0
2018-Jul-19 07:30N 35°23' E 139°40'2 3.8
2018-Jul-19 07:00N 35°25' E 139°42'3 5.1
2018-Jul-19 06:30N 35°27' E 139°40'0 0.0
2018-Jul-19 06:00N 35°27' E 139°40'0 0.0
2018-Jul-19 05:28N 35°27' E 139°40'0 0.0
2018-Jul-19 05:00N 35°27' E 139°40'0 0.0
2018-Jul-19 04:30N 35°27' E 139°40'0 0.0
2018-Jul-19 04:01N 35°27' E 139°40'0 0.0
2018-Jul-19 03:30N 35°27' E 139°40'0 0.0
2018-Jul-19 03:00N 35°27' E 139°40'0 0.0
2018-Jul-19 02:30N 35°27' E 139°40'0 0.0
2018-Jul-19 02:00N 35°27' E 139°40'0 0.0
2018-Jul-19 01:30N 35°27' E 139°40'2 3.1
2018-Jul-19 01:01N 35°27' E 139°42'611.9
2018-Jul-19 00:30N 35°21' E 139°43'612.6
2018-Jul-19 00:00N 35°15' E 139°47'510.6
2018-Jul-18 23:30N 35°10' E 139°47'4 8.5
2018-Jul-18 23:00N 35°14' E 139°46'714.0
2018-Jul-18 22:30N 35°21' E 139°42'713.2
2018-Jul-18 22:00N 35°27' E 139°41'1 2.0
2018-Jul-18 21:30N 35°27' E 139°40'0 0.0
2018-Jul-18 21:00N 35°27' E 139°40'0 0.0
2018-Jul-18 20:30N 35°27' E 139°40'0 0.0
2018-Jul-18 20:00N 35°27' E 139°40'0 0.0
2018-Jul-18 19:30N 35°27' E 139°40'0 0.0
2018-Jul-18 19:00N 35°27' E 139°40'0 0.0
2018-Jul-18 18:30N 35°27' E 139°40'0 0.0
2018-Jul-18 18:00N 35°27' E 139°40'0 0.0
2018-Jul-18 17:30N 35°27' E 139°40'0 0.0
2018-Jul-18 17:00N 35°27' E 139°40'0 0.0
2018-Jul-18 16:29N 35°27' E 139°40'0 0.0
2018-Jul-18 16:00N 35°27' E 139°40'0 0.0
2018-Jul-18 15:30N 35°27' E 139°40'0 0.0
2018-Jul-18 15:00N 35°27' E 139°40'0 0.0
2018-Jul-18 14:30N 35°27' E 139°40'0 0.0
2018-Jul-18 13:30N 35°27' E 139°40'0 0.0
2018-Jul-18 13:00N 35°27' E 139°40'0 0.0
2018-Jul-18 12:30N 35°27' E 139°40'0 0.0
2018-Jul-18 12:00N 35°27' E 139°40'0 0.0
2018-Jul-18 11:30N 35°27' E 139°40'0 0.0
2018-Jul-18 10:30N 35°27' E 139°40'0 0.0
2018-Jul-18 10:00N 35°27' E 139°40'0 0.0
2018-Jul-18 09:30N 35°27' E 139°40'0 0.0
2018-Jul-18 09:00N 35°27' E 139°40'0 0.0
2018-Jul-18 08:30N 35°27' E 139°40'0 0.0
2018-Jul-18 08:00N 35°27' E 139°40'0 0.0
2018-Jul-18 07:30N 35°27' E 139°40'0 0.0
2018-Jul-18 07:00N 35°27' E 139°40'0 0.0
2018-Jul-18 06:30N 35°27' E 139°40'0 0.0
2018-Jul-18 06:00N 35°27' E 139°40'3 5.1
2018-Jul-18 05:30N 35°29' E 139°42'3 5.1
2018-Jul-18 05:00N 35°30' E 139°44'1 1.6
2018-Jul-18 04:29N 35°31' E 139°44'510.9
2018-Jul-18 04:00N 35°27' E 139°40'0 0.2
2018-Jul-18 03:30N 35°27' E 139°40'0 0.0
2018-Jul-18 03:00N 35°27' E 139°40'0 0.0
2018-Jul-18 02:30N 35°27' E 139°40'0 0.0
2018-Jul-18 02:00N 35°27' E 139°40'0 0.0
2018-Jul-18 01:30N 35°27' E 139°40'0 0.0
2018-Jul-18 01:00N 35°27' E 139°40'0 0.0
2018-Jul-18 00:31N 35°27' E 139°40'0 0.0
2018-Jul-18 00:00N 35°27' E 139°40'0 0.0
2018-Jul-17 23:30N 35°27' E 139°40'0 0.0
2018-Jul-17 22:59N 35°27' E 139°40'0 0.0
2018-Jul-17 22:30N 35°27' E 139°40'0 0.0
2018-Jul-15 21:30N 35°27' E 139°40'5 9.9
2018-Jul-15 21:00N 35°25' E 139°46'510.5
2018-Jul-15 20:30N 35°20' E 139°44'611.7
2018-Jul-15 20:00N 35°15' E 139°47'510.4
2018-Jul-15 19:30N 35°10' E 139°47'510.7
2018-Jul-15 19:00N 35°15' E 139°45'612.1
2018-Jul-15 18:30N 35°19' E 139°40'1 1.0
2018-Jul-15 18:00N 35°19' E 139°39'0 0.0
2018-Jul-15 12:45N 35°19' E 139°39'1 5.4
2018-Jul-15 12:30N 35°19' E 139°41'713.1
2018-Jul-15 12:00N 35°13' E 139°45'3 6.1
2018-Jul-15 11:30N 35°17' E 139°45'611.4
2018-Jul-15 11:00N 35°22' E 139°42'3 6.0
2018-Jul-15 10:30N 35°24' E 139°44'2 3.8
2018-Jul-15 10:00N 35°26' E 139°43'3 5.4
2018-Jul-15 09:30N 35°27' E 139°40'0 0.0
2018-Jul-15 09:00N 35°27' E 139°40'0 0.0
2018-Jul-15 08:30N 35°27' E 139°40'0 0.0
2018-Jul-14 11:26N 35°27' E 139°40'2 5.6
2018-Jul-14 11:01N 35°25' E 139°42'714.2
2018-Jul-14 10:31N 35°18' E 139°43'612.1
2018-Jul-14 10:00N 35°13' E 139°46'611.5
2018-Jul-14 09:30N 35°18' E 139°44'612.5
2018-Jul-14 09:01N 35°24' E 139°43'2 4.1
2018-Jul-14 08:30N 35°25' E 139°45'4 7.2
2018-Jul-14 08:01N 35°27' E 139°42'2 3.3
2018-Jul-14 07:30N 35°27' E 139°40'0 0.0
2018-Jul-14 07:00N 35°27' E 139°40'0 0.0
2018-Jul-14 06:30N 35°27' E 139°40'0 0.0
2018-Jul-14 06:00N 35°27' E 139°40'0 0.0
2018-Jul-14 05:30N 35°27' E 139°40'3 5.0
2018-Jul-14 05:00N 35°25' E 139°42'815.0
2018-Jul-14 04:30N 35°18' E 139°43'510.1
2018-Jul-14 04:00N 35°13' E 139°46'612.0
2018-Jul-14 03:31N 35°19' E 139°43'5 9.8
2018-Jul-14 03:01N 35°23' E 139°41'1 1.9
2018-Jul-14 02:30N 35°24' E 139°42'3 6.2
2018-Jul-14 02:00N 35°27' E 139°40'0 0.0
2018-Jul-14 01:29N 35°27' E 139°40'0 0.0
2018-Jul-14 01:00N 35°27' E 139°40'0 0.0
2018-Jul-14 00:30N 35°27' E 139°40'0 0.0
2018-Jul-14 00:00N 35°27' E 139°40'0 0.0
2018-Jul-13 23:30N 35°27' E 139°40'0 0.0
2018-Jul-13 23:00N 35°27' E 139°40'0 0.0
2018-Jul-13 22:30N 35°27' E 139°40'0 0.0
2018-Jul-13 21:59N 35°27' E 139°40'0 0.0
2018-Jul-13 21:30N 35°27' E 139°40'0 0.0
2018-Jul-13 21:00N 35°27' E 139°40'0 0.0
2018-Jul-13 20:30N 35°27' E 139°40'0 0.0
2018-Jul-13 20:00N 35°27' E 139°40'0 0.0
2018-Jul-13 19:30N 35°27' E 139°40'0 0.0
2018-Jul-13 19:00N 35°27' E 139°40'0 0.0
2018-Jul-13 18:30N 35°27' E 139°40'0 0.0
2018-Jul-13 18:00N 35°27' E 139°40'0 0.0
2018-Jul-13 17:30N 35°27' E 139°40'0 0.0
2018-Jul-13 17:00N 35°27' E 139°40'0 0.0
2018-Jul-13 16:30N 35°27' E 139°40'0 0.0
2018-Jul-13 16:00N 35°27' E 139°40'0 0.0
2018-Jul-13 15:30N 35°27' E 139°40'0 0.0
2018-Jul-13 15:00N 35°27' E 139°40'0 0.0
2018-Jul-13 14:30N 35°27' E 139°40'0 0.0
2018-Jul-13 13:30N 35°27' E 139°40'0 0.0
2018-Jul-13 13:00N 35°27' E 139°40'0 0.0
2018-Jul-13 12:30N 35°27' E 139°40'0 0.0
2018-Jul-13 12:00N 35°27' E 139°40'0 0.0
2018-Jul-13 11:30N 35°27' E 139°40'0 0.0
2018-Jul-13 11:00N 35°27' E 139°40'0 0.0
2018-Jul-13 10:30N 35°27' E 139°40'0 0.0
2018-Jul-13 10:00N 35°27' E 139°40'0 0.0
2018-Jul-13 09:30N 35°27' E 139°40'0 0.0
2018-Jul-13 09:00N 35°27' E 139°40'0 0.1
2018-Jul-13 08:30N 35°27' E 139°40'510.5
2018-Jul-13 08:01N 35°22' E 139°42'815.3
2018-Jul-13 07:31N 35°15' E 139°46'1 1.6
2018-Jul-13 07:00N 35°14' E 139°46'3 5.4
2018-Jul-13 06:30N 35°17' E 139°45'3 6.5
2018-Jul-13 06:01N 35°19' E 139°43'611.5
2018-Jul-13 05:30N 35°25' E 139°46'510.5
2018-Jul-13 05:00N 35°20' E 139°44'611.2
2018-Jul-13 04:30N 35°15' E 139°47'4 8.5
2018-Jul-13 04:01N 35°10' E 139°47'4 8.7
2018-Jul-13 03:30N 35°15' E 139°46'612.7
2018-Jul-13 03:00N 35°20' E 139°42'613.0
2018-Jul-13 02:30N 35°27' E 139°41'1 2.7
2018-Jul-13 02:00N 35°27' E 139°40'0 0.0
2018-Jul-13 01:30N 35°27' E 139°40'0 0.0
2018-Jul-13 01:00N 35°27' E 139°40'0 0.0
2018-Jul-13 00:30N 35°27' E 139°40'0 0.0
2018-Jul-12 23:59N 35°27' E 139°40'0 0.0
2018-Jul-12 23:30N 35°27' E 139°40'0 0.0
2018-Jul-12 23:00N 35°27' E 139°40'0 0.0
2018-Jul-12 22:30N 35°27' E 139°40'0 0.0
2018-Jul-12 22:01N 35°27' E 139°40'0 0.0
2018-Jul-12 21:30N 35°27' E 139°40'0 0.0
2018-Jul-12 21:01N 35°27' E 139°40'0 0.0
2018-Jul-12 20:31N 35°27' E 139°40'0 0.0
2018-Jul-12 19:59N 35°27' E 139°40'0 0.0
2018-Jul-12 19:30N 35°27' E 139°40'0 0.0
2018-Jul-12 19:01N 35°27' E 139°40'0 0.0
2018-Jul-12 18:31N 35°27' E 139°40'0 0.0
2018-Jul-12 18:01N 35°27' E 139°40'0 0.0
2018-Jul-12 17:31N 35°27' E 139°40'0 0.0
2018-Jul-12 16:59N 35°27' E 139°40'0 0.0
2018-Jul-12 16:30N 35°27' E 139°40'0 0.0
2018-Jul-12 16:00N 35°27' E 139°40'0 0.0
2018-Jul-12 15:30N 35°27' E 139°40'0 0.0
2018-Jul-12 15:00N 35°27' E 139°40'0 0.0
2018-Jul-12 14:30N 35°27' E 139°40'0 0.0
2018-Jul-12 14:00N 35°27' E 139°40'0 0.0
2018-Jul-12 13:30N 35°27' E 139°40'0 0.0
2018-Jul-12 13:01N 35°27' E 139°40'5 9.3
2018-Jul-12 12:31N 35°22' E 139°42'612.1
2018-Jul-12 12:00N 35°17' E 139°45'  
Track history (hours):
 
Tides and Currents Weather Stations Pressure Air Temp Water Temp Dewpoint Dewpoint Depression Visibility Wind Speed Wind Dir Waves Ship Positions

Orion

Last reported at 2018-Jul-22 11:51 UTC. Time now 2018-Jul-22 21:42 UTC.
Position N 35°27' E 139°40'.

Length 30 m; draft 2.9 m.

Type: Pilot. MMSI: 431001618.

Date/timePositionNaut miles runAvg speedWind from/ knotsBaromVisibWave heightAir tempDewpointWater temp
2018-Jul-22 11:51N 35°27' E 139°40'3 8.6
2018-Jul-22 11:30N 35°26' E 139°43'5 9.0
2018-Jul-22 11:00N 35°22' E 139°45'611.5
2018-Jul-22 10:31N 35°16' E 139°46'611.7
2018-Jul-22 10:00N 35°11' E 139°46'1 1.6
2018-Jul-22 09:31N 35°11' E 139°47'611.6
2018-Jul-22 09:00N 35°17' E 139°45'714.1
2018-Jul-22 08:31N 35°23' E 139°41'4 7.8
2018-Jul-22 08:01N 35°27' E 139°40'0 0.0
2018-Jul-22 07:30N 35°27' E 139°40'0 0.0
2018-Jul-22 07:00N 35°27' E 139°40'0 0.0
2018-Jul-22 06:30N 35°27' E 139°40'0 0.0
2018-Jul-22 06:00N 35°27' E 139°40'0 0.0
2018-Jul-22 05:30N 35°27' E 139°40'0 0.0
2018-Jul-22 05:00N 35°27' E 139°40'0 0.0
2018-Jul-22 04:30N 35°27' E 139°40'0 0.0
2018-Jul-22 04:00N 35°27' E 139°40'0 0.0
2018-Jul-22 03:30N 35°27' E 139°40'0 0.0
2018-Jul-22 03:00N 35°27' E 139°40'0 0.0
2018-Jul-22 02:30N 35°27' E 139°40'0 0.0
2018-Jul-22 02:00N 35°27' E 139°40'0 0.0
2018-Jul-22 01:30N 35°27' E 139°40'0 0.0
2018-Jul-22 01:00N 35°27' E 139°40'0 0.0
2018-Jul-22 00:30N 35°27' E 139°40'0 0.0
2018-Jul-22 00:00N 35°27' E 139°40'0 0.0
2018-Jul-21 23:30N 35°27' E 139°40'0 0.0
2018-Jul-21 23:00N 35°27' E 139°40'0 0.0
2018-Jul-21 22:30N 35°27' E 139°40'0 0.0
2018-Jul-21 22:00N 35°27' E 139°40'0 0.0
2018-Jul-21 21:30N 35°27' E 139°40'0 0.0
2018-Jul-21 21:00N 35°27' E 139°40'0 0.0
2018-Jul-21 20:30N 35°27' E 139°40'0 0.0
2018-Jul-21 20:00N 35°27' E 139°40'0 0.0
2018-Jul-21 19:30N 35°27' E 139°40'0 0.0
2018-Jul-21 19:00N 35°27' E 139°40'0 0.0
2018-Jul-21 18:30N 35°27' E 139°40'0 0.0
2018-Jul-21 18:00N 35°27' E 139°40'0 0.0
2018-Jul-21 17:30N 35°27' E 139°40'0 0.0
2018-Jul-21 17:00N 35°27' E 139°40'0 0.0
2018-Jul-21 16:30N 35°27' E 139°40'0 0.0
2018-Jul-21 15:58N 35°27' E 139°40'0 0.0
2018-Jul-21 15:30N 35°27' E 139°40'0 0.0
2018-Jul-21 15:00N 35°27' E 139°40'0 0.0
2018-Jul-21 14:30N 35°27' E 139°40'0 0.0
2018-Jul-21 13:30N 35°27' E 139°40'0 0.0
2018-Jul-21 13:00N 35°27' E 139°40'0 0.0
2018-Jul-21 12:30N 35°27' E 139°40'0 0.0
2018-Jul-21 12:00N 35°27' E 139°40'0 0.0
2018-Jul-21 11:30N 35°27' E 139°40'0 0.0
2018-Jul-21 11:00N 35°27' E 139°40'0 0.0
2018-Jul-21 10:30N 35°27' E 139°40'2 3.3
2018-Jul-21 10:00N 35°27' E 139°42'714.2
2018-Jul-21 09:30N 35°20' E 139°42'714.4
2018-Jul-21 09:01N 35°13' E 139°46'4 8.5
2018-Jul-21 08:30N 35°17' E 139°45'612.8
2018-Jul-21 08:00N 35°23' E 139°42'3 5.8
2018-Jul-21 07:31N 35°25' E 139°46'4 7.4
2018-Jul-21 07:00N 35°27' E 139°42'2 3.4
2018-Jul-21 06:30N 35°27' E 139°40'0 0.0
2018-Jul-21 06:00N 35°27' E 139°40'0 0.0
2018-Jul-21 05:30N 35°27' E 139°40'0 0.0
2018-Jul-21 05:00N 35°27' E 139°40'0 0.0
2018-Jul-21 04:30N 35°27' E 139°40'0 0.0
2018-Jul-21 04:00N 35°27' E 139°40'0 0.0
2018-Jul-21 03:30N 35°27' E 139°40'0 0.0
2018-Jul-21 03:00N 35°27' E 139°40'0 0.0
2018-Jul-21 02:29N 35°27' E 139°40'0 0.0
2018-Jul-21 02:00N 35°27' E 139°40'0 0.0
2018-Jul-21 01:30N 35°27' E 139°40'0 0.0
2018-Jul-21 01:00N 35°27' E 139°40'0 0.0
2018-Jul-21 00:30N 35°27' E 139°40'0 0.0
2018-Jul-21 00:00N 35°27' E 139°40'0 0.0
2018-Jul-20 23:30N 35°27' E 139°40'0 0.0
2018-Jul-20 23:00N 35°27' E 139°40'0 0.0
2018-Jul-20 22:30N 35°27' E 139°40'0 0.3
2018-Jul-20 22:00N 35°27' E 139°40'2 3.4
2018-Jul-20 21:31N 35°27' E 139°42'5 9.9
2018-Jul-20 21:00N 35°23' E 139°46'611.2
2018-Jul-20 20:30N 35°17' E 139°45'611.8
2018-Jul-20 20:00N 35°11' E 139°47'0 1.0
2018-Jul-20 19:30N 35°11' E 139°47'612.9
2018-Jul-20 19:00N 35°17' E 139°44'713.6
2018-Jul-20 18:30N 35°24' E 139°42'4 0.1
2018-Jul-19 10:17N 35°27' E 139°40'2 6.0
2018-Jul-19 10:00N 35°27' E 139°42'714.7
2018-Jul-19 09:30N 35°19' E 139°42'815.3
2018-Jul-19 09:00N 35°12' E 139°46'510.4
2018-Jul-19 08:30N 35°17' E 139°45'612.0
2018-Jul-19 08:00N 35°23' E 139°41'1 2.0
2018-Jul-19 07:30N 35°23' E 139°40'2 3.8
2018-Jul-19 07:00N 35°25' E 139°42'3 5.1
2018-Jul-19 06:30N 35°27' E 139°40'0 0.0
2018-Jul-19 06:00N 35°27' E 139°40'0 0.0
2018-Jul-19 05:28N 35°27' E 139°40'0 0.0
2018-Jul-19 05:00N 35°27' E 139°40'0 0.0
2018-Jul-19 04:30N 35°27' E 139°40'0 0.0
2018-Jul-19 04:01N 35°27' E 139°40'0 0.0
2018-Jul-19 03:30N 35°27' E 139°40'0 0.0
2018-Jul-19 03:00N 35°27' E 139°40'0 0.0
2018-Jul-19 02:30N 35°27' E 139°40'0 0.0
2018-Jul-19 02:00N 35°27' E 139°40'0 0.0
2018-Jul-19 01:30N 35°27' E 139°40'2 3.1
2018-Jul-19 01:01N 35°27' E 139°42'611.9
2018-Jul-19 00:30N 35°21' E 139°43'612.6
2018-Jul-19 00:00N 35°15' E 139°47'510.6
2018-Jul-18 23:30N 35°10' E 139°47'4 8.5
2018-Jul-18 23:00N 35°14' E 139°46'714.0
2018-Jul-18 22:30N 35°21' E 139°42'713.2
2018-Jul-18 22:00N 35°27' E 139°41'1 2.0
2018-Jul-18 21:30N 35°27' E 139°40'0 0.0
2018-Jul-18 21:00N 35°27' E 139°40'0 0.0
2018-Jul-18 20:30N 35°27' E 139°40'0 0.0
2018-Jul-18 20:00N 35°27' E 139°40'0 0.0
2018-Jul-18 19:30N 35°27' E 139°40'0 0.0
2018-Jul-18 19:00N 35°27' E 139°40'0 0.0
2018-Jul-18 18:30N 35°27' E 139°40'0 0.0
2018-Jul-18 18:00N 35°27' E 139°40'0 0.0
2018-Jul-18 17:30N 35°27' E 139°40'0 0.0
2018-Jul-18 17:00N 35°27' E 139°40'0 0.0
2018-Jul-18 16:29N 35°27' E 139°40'0 0.0
2018-Jul-18 16:00N 35°27' E 139°40'0 0.0
2018-Jul-18 15:30N 35°27' E 139°40'0 0.0
2018-Jul-18 15:00N 35°27' E 139°40'0 0.0
2018-Jul-18 14:30N 35°27' E 139°40'0 0.0
2018-Jul-18 13:30N 35°27' E 139°40'0 0.0
2018-Jul-18 13:00N 35°27' E 139°40'0 0.0
2018-Jul-18 12:30N 35°27' E 139°40'0 0.0
2018-Jul-18 12:00N 35°27' E 139°40'0 0.0
2018-Jul-18 11:30N 35°27' E 139°40'0 0.0
2018-Jul-18 10:30N 35°27' E 139°40'0 0.0
2018-Jul-18 10:00N 35°27' E 139°40'0 0.0
2018-Jul-18 09:30N 35°27' E 139°40'0 0.0
2018-Jul-18 09:00N 35°27' E 139°40'0 0.0
2018-Jul-18 08:30N 35°27' E 139°40'0 0.0
2018-Jul-18 08:00N 35°27' E 139°40'0 0.0
2018-Jul-18 07:30N 35°27' E 139°40'0 0.0
2018-Jul-18 07:00N 35°27' E 139°40'0 0.0
2018-Jul-18 06:30N 35°27' E 139°40'0 0.0
2018-Jul-18 06:00N 35°27' E 139°40'3 5.1
2018-Jul-18 05:30N 35°29' E 139°42'3 5.1
2018-Jul-18 05:00N 35°30' E 139°44'1 1.6
2018-Jul-18 04:29N 35°31' E 139°44'510.9
2018-Jul-18 04:00N 35°27' E 139°40'0 0.2
2018-Jul-18 03:30N 35°27' E 139°40'0 0.0
2018-Jul-18 03:00N 35°27' E 139°40'0 0.0
2018-Jul-18 02:30N 35°27' E 139°40'0 0.0
2018-Jul-18 02:00N 35°27' E 139°40'0 0.0
2018-Jul-18 01:30N 35°27' E 139°40'0 0.0
2018-Jul-18 01:00N 35°27' E 139°40'0 0.0
2018-Jul-18 00:31N 35°27' E 139°40'0 0.0
2018-Jul-18 00:00N 35°27' E 139°40'0 0.0
2018-Jul-17 23:30N 35°27' E 139°40'0 0.0
2018-Jul-17 22:59N 35°27' E 139°40'0 0.0
2018-Jul-17 22:30N 35°27' E 139°40'0 0.0
2018-Jul-15 21:30N 35°27' E 139°40'5 9.9
2018-Jul-15 21:00N 35°25' E 139°46'510.5
2018-Jul-15 20:30N 35°20' E 139°44'611.7
2018-Jul-15 20:00N 35°15' E 139°47'510.4
2018-Jul-15 19:30N 35°10' E 139°47'510.7
2018-Jul-15 19:00N 35°15' E 139°45'612.1
2018-Jul-15 18:30N 35°19' E 139°40'1 1.0
2018-Jul-15 18:00N 35°19' E 139°39'0 0.0
2018-Jul-15 12:45N 35°19' E 139°39'1 5.4
2018-Jul-15 12:30N 35°19' E 139°41'713.1
2018-Jul-15 12:00N 35°13' E 139°45'3 6.1
2018-Jul-15 11:30N 35°17' E 139°45'611.4
2018-Jul-15 11:00N 35°22' E 139°42'3 6.0
2018-Jul-15 10:30N 35°24' E 139°44'2 3.8
2018-Jul-15 10:00N 35°26' E 139°43'3 5.4
2018-Jul-15 09:30N 35°27' E 139°40'0 0.0
2018-Jul-15 09:00N 35°27' E 139°40'0 0.0
2018-Jul-15 08:30N 35°27' E 139°40'0 0.0
2018-Jul-14 11:26N 35°27' E 139°40'2 5.6
2018-Jul-14 11:01N 35°25' E 139°42'714.2
2018-Jul-14 10:31N 35°18' E 139°43'612.1
2018-Jul-14 10:00N 35°13' E 139°46'611.5
2018-Jul-14 09:30N 35°18' E 139°44'612.5
2018-Jul-14 09:01N 35°24' E 139°43'2 4.1
2018-Jul-14 08:30N 35°25' E 139°45'4 7.2
2018-Jul-14 08:01N 35°27' E 139°42'2 3.3
2018-Jul-14 07:30N 35°27' E 139°40'0 0.0
2018-Jul-14 07:00N 35°27' E 139°40'0 0.0
2018-Jul-14 06:30N 35°27' E 139°40'0 0.0
2018-Jul-14 06:00N 35°27' E 139°40'0 0.0
2018-Jul-14 05:30N 35°27' E 139°40'3 5.0
2018-Jul-14 05:00N 35°25' E 139°42'815.0
2018-Jul-14 04:30N 35°18' E 139°43'510.1
2018-Jul-14 04:00N 35°13' E 139°46'612.0
2018-Jul-14 03:31N 35°19' E 139°43'5 9.8
2018-Jul-14 03:01N 35°23' E 139°41'1 1.9
2018-Jul-14 02:30N 35°24' E 139°42'3 6.2
2018-Jul-14 02:00N 35°27' E 139°40'0 0.0
2018-Jul-14 01:29N 35°27' E 139°40'0 0.0
2018-Jul-14 01:00N 35°27' E 139°40'0 0.0
2018-Jul-14 00:30N 35°27' E 139°40'0 0.0
2018-Jul-14 00:00N 35°27' E 139°40'0 0.0
2018-Jul-13 23:30N 35°27' E 139°40'0 0.0
2018-Jul-13 23:00N 35°27' E 139°40'0 0.0
2018-Jul-13 22:30N 35°27' E 139°40'0 0.0
2018-Jul-13 21:59N 35°27' E 139°40'0 0.0
2018-Jul-13 21:30N 35°27' E 139°40'0 0.0
2018-Jul-13 21:00N 35°27' E 139°40'0 0.0
2018-Jul-13 20:30N 35°27' E 139°40'0 0.0
2018-Jul-13 20:00N 35°27' E 139°40'0 0.0
2018-Jul-13 19:30N 35°27' E 139°40'0 0.0
2018-Jul-13 19:00N 35°27' E 139°40'0 0.0
2018-Jul-13 18:30N 35°27' E 139°40'0 0.0
2018-Jul-13 18:00N 35°27' E 139°40'0 0.0
2018-Jul-13 17:30N 35°27' E 139°40'0 0.0
2018-Jul-13 17:00N 35°27' E 139°40'0 0.0
2018-Jul-13 16:30N 35°27' E 139°40'0 0.0
2018-Jul-13 16:00N 35°27' E 139°40'0 0.0
2018-Jul-13 15:30N 35°27' E 139°40'0 0.0
2018-Jul-13 15:00N 35°27' E 139°40'0 0.0
2018-Jul-13 14:30N 35°27' E 139°40'0 0.0
2018-Jul-13 13:30N 35°27' E 139°40'0 0.0
2018-Jul-13 13:00N 35°27' E 139°40'0 0.0
2018-Jul-13 12:30N 35°27' E 139°40'0 0.0
2018-Jul-13 12:00N 35°27' E 139°40'0 0.0
2018-Jul-13 11:30N 35°27' E 139°40'0 0.0
2018-Jul-13 11:00N 35°27' E 139°40'0 0.0
2018-Jul-13 10:30N 35°27' E 139°40'0 0.0
2018-Jul-13 10:00N 35°27' E 139°40'0 0.0
2018-Jul-13 09:30N 35°27' E 139°40'0 0.0
2018-Jul-13 09:00N 35°27' E 139°40'0 0.1
2018-Jul-13 08:30N 35°27' E 139°40'510.5
2018-Jul-13 08:01N 35°22' E 139°42'815.3
2018-Jul-13 07:31N 35°15' E 139°46'1 1.6
2018-Jul-13 07:00N 35°14' E 139°46'3 5.4
2018-Jul-13 06:30N 35°17' E 139°45'3 6.5
2018-Jul-13 06:01N 35°19' E 139°43'611.5
2018-Jul-13 05:30N 35°25' E 139°46'510.5
2018-Jul-13 05:00N 35°20' E 139°44'611.2
2018-Jul-13 04:30N 35°15' E 139°47'4 8.5
2018-Jul-13 04:01N 35°10' E 139°47'4 8.7
2018-Jul-13 03:30N 35°15' E 139°46'612.7
2018-Jul-13 03:00N 35°20' E 139°42'613.0
2018-Jul-13 02:30N 35°27' E 139°41'1 2.7
2018-Jul-13 02:00N 35°27' E 139°40'0 0.0
2018-Jul-13 01:30N 35°27' E 139°40'0 0.0
2018-Jul-13 01:00N 35°27' E 139°40'0 0.0
2018-Jul-13 00:30N 35°27' E 139°40'0 0.0
2018-Jul-12 23:59N 35°27' E 139°40'0 0.0
2018-Jul-12 23:30N 35°27' E 139°40'0 0.0
2018-Jul-12 23:00N 35°27' E 139°40'0 0.0
2018-Jul-12 22:30N 35°27' E 139°40'0 0.0
2018-Jul-12 22:01N 35°27' E 139°40'0 0.0
2018-Jul-12 21:30N 35°27' E 139°40'0 0.0
2018-Jul-12 21:01N 35°27' E 139°40'0 0.0
2018-Jul-12 20:31N 35°27' E 139°40'0 0.0
2018-Jul-12 19:59N 35°27' E 139°40'0 0.0
2018-Jul-12 19:30N 35°27' E 139°40'0 0.0
2018-Jul-12 19:01N 35°27' E 139°40'0 0.0
2018-Jul-12 18:31N 35°27' E 139°40'0 0.0
2018-Jul-12 18:01N 35°27' E 139°40'0 0.0
2018-Jul-12 17:31N 35°27' E 139°40'0 0.0
2018-Jul-12 16:59N 35°27' E 139°40'0 0.0
2018-Jul-12 16:30N 35°27' E 139°40'0 0.0
2018-Jul-12 16:00N 35°27' E 139°40'0 0.0
2018-Jul-12 15:30N 35°27' E 139°40'0 0.0
2018-Jul-12 15:00N 35°27' E 139°40'0 0.0
2018-Jul-12 14:30N 35°27' E 139°40'0 0.0
2018-Jul-12 14:00N 35°27' E 139°40'0 0.0
2018-Jul-12 13:30N 35°27' E 139°40'0 0.0
2018-Jul-12 13:01N 35°27' E 139°40'5 9.3
2018-Jul-12 12:31N 35°22' E 139°42'612.1
2018-Jul-12 12:00N 35°17' E 139°45'  

Dump ship's entire track history